Time;durP1;ratioP1;P1;durP2;ratioP2;P2;SDS_P1;SDS_P2;PMS_P1;PMS_P2;Temp;Humidity;BMP_temperature;BMP_pressure;BME280_temperature;BME280_humidity;BME280_pressure;Samples;Min_cycle;Max_cycle;Signal;HPM_P1;HPM_P2
2023/04/07 00:01:05;;;;;;;3.55;1.10;;;;;;;15.39;52.02;101589.66;5090252;28;20043;-58
2023/04/07 00:03:31;;;;;;;2.15;0.95;;;;;;;15.47;52.64;101591.25;5089951;28;20131;-60
2023/04/07 00:05:57;;;;;;;4.85;1.20;;;;;;;15.64;51.75;101586.16;5086352;28;20452;-61
2023/04/07 00:08:23;;;;;;;7.40;1.50;;;;;;;15.33;52.32;101574.38;5085538;28;20417;-62
2023/04/07 00:10:50;;;;;;;7.07;1.30;;;;;;;15.33;53.59;101579.75;5109791;28;20027;-60
2023/04/07 00:13:16;;;;;;;1.67;0.77;;;;;;;15.21;53.10;101576.09;5098662;28;20106;-60
2023/04/07 00:15:42;;;;;;;2.67;0.80;;;;;;;15.10;53.04;101579.50;5093572;28;20028;-60
2023/04/07 00:18:08;;;;;;;2.40;0.90;;;;;;;15.20;53.86;101579.84;5093662;28;20530;-60
2023/04/07 00:20:34;;;;;;;3.42;0.88;;;;;;;14.89;54.59;101573.41;5093658;28;20070;-60
2023/04/07 00:23:01;;;;;;;2.75;1.25;;;;;;;14.89;55.61;101583.38;5093500;28;20024;-60
2023/04/07 00:25:27;;;;;;;3.85;1.17;;;;;;;14.98;54.07;101566.69;5092807;28;20511;-62
2023/04/07 00:27:53;;;;;;;3.42;1.25;;;;;;;14.86;54.95;101563.06;5110123;28;20100;-60
2023/04/07 00:30:19;;;;;;;3.67;1.20;;;;;;;14.96;54.69;101557.19;5114091;28;20028;-61
2023/04/07 00:32:46;;;;;;;3.55;1.45;;;;;;;15.00;54.81;101553.84;5084524;28;20086;-61
2023/04/07 00:35:12;;;;;;;3.70;1.05;;;;;;;14.55;54.57;101546.84;5081911;28;20043;-60
2023/04/07 00:37:38;;;;;;;2.22;0.85;;;;;;;14.64;54.87;101548.25;5093319;28;20434;-59
2023/04/07 00:40:05;;;;;;;1.88;0.80;;;;;;;14.64;55.29;101542.88;5093821;28;20028;-58
2023/04/07 00:42:33;;;;;;;2.08;1.35;;;;;;;14.70;55.43;101547.41;5091258;28;20054;-59
2023/04/07 00:45:00;;;;;;;5.78;0.98;;;;;;;14.80;55.71;101555.84;5089709;28;20039;-59
2023/04/07 00:47:26;;;;;;;4.40;1.23;;;;;;;14.80;56.00;101553.16;5091707;28;20035;-59
2023/04/07 00:49:52;;;;;;;4.30;1.20;;;;;;;14.91;56.27;101552.44;5079856;28;20028;-61
2023/04/07 00:52:26;;;;;;;2.63;1.00;;;;;;;14.85;55.48;101550.63;5072573;28;20024;-61
2023/04/07 00:54:56;;;;;;;2.90;1.08;;;;;;;14.69;56.38;101551.13;5072900;28;20023;-61
2023/04/07 00:57:24;;;;;;;4.95;1.38;;;;;;;14.65;56.70;101553.44;5088555;28;20031;-60
2023/04/07 00:59:54;;;;;;;6.15;1.27;;;;;;;14.75;57.72;101550.25;5092829;28;20038;-59
2023/04/07 01:02:26;;;;;;;2.67;1.40;;;;;;;14.75;58.16;101551.09;5112271;28;20023;-59
2023/04/07 01:05:10;;;;;;;4.20;1.27;;;;;;;14.44;57.20;101553.72;5100166;28;20069;-59
2023/04/07 01:08:08;;;;;;;2.88;1.10;;;;;;;14.07;58.58;101550.75;5092441;28;20074;-58
2023/04/07 01:10:49;;;;;;;3.00;1.20;;;;;;;14.24;59.36;101554.63;5092812;28;20024;-59
2023/04/07 01:13:41;;;;;;;5.03;1.33;;;;;;;14.07;58.46;101558.00;5092777;28;20449;-58
2023/04/07 01:16:12;;;;;;;6.80;1.70;;;;;;;13.95;58.56;101552.44;5080757;28;20096;-60
2023/04/07 01:18:39;;;;;;;6.18;1.27;;;;;;;14.00;58.81;101550.78;5091346;28;20032;-58
2023/04/07 01:21:16;;;;;;;4.82;1.48;;;;;;;13.94;58.69;101559.69;5082988;28;20045;-57
2023/04/07 01:24:11;;;;;;;4.25;1.20;;;;;;;13.88;59.40;101563.22;5072163;28;20033;-57
2023/04/07 01:26:38;;;;;;;2.78;1.10;;;;;;;13.93;58.64;101558.00;5050243;28;20039;-57
2023/04/07 01:29:22;;;;;;;3.35;1.10;;;;;;;13.88;58.41;101557.84;5071983;28;20039;-57
2023/04/07 01:31:50;;;;;;;4.70;1.40;;;;;;;13.97;58.18;101550.34;5086173;28;20036;-58
2023/04/07 01:34:17;;;;;;;4.68;1.50;;;;;;;13.96;58.68;101551.41;5094899;28;20464;-58
2023/04/07 01:36:45;;;;;;;5.75;1.33;;;;;;;13.87;59.25;101561.53;5106353;28;20109;-58
2023/04/07 01:39:13;;;;;;;4.57;1.23;;;;;;;13.90;59.06;101557.63;5091417;28;20067;-57
2023/04/07 01:41:40;;;;;;;2.45;1.20;;;;;;;13.99;58.61;101559.03;5092797;28;20028;-58
2023/04/07 01:44:08;;;;;;;4.43;1.30;;;;;;;13.94;60.24;101561.56;5092081;28;20020;-58
2023/04/07 01:46:34;;;;;;;4.05;1.10;;;;;;;13.96;60.45;101560.28;5092046;28;20028;-58
2023/04/07 01:49:02;;;;;;;6.30;1.58;;;;;;;13.69;61.59;101564.06;5092322;28;20016;-58
2023/04/07 01:51:30;;;;;;;3.60;1.00;;;;;;;13.51;62.08;101564.72;5092098;28;20028;-57
2023/04/07 01:53:58;;;;;;;4.90;1.45;;;;;;;13.52;62.55;101569.06;5092309;28;20025;-57
2023/04/07 01:56:24;;;;;;;7.75;1.40;;;;;;;13.45;61.38;101565.53;5091801;28;20024;-58
2023/04/07 01:58:50;;;;;;;5.07;1.38;;;;;;;13.23;63.27;101572.16;5092317;28;20129;-57
2023/04/07 02:01:17;;;;;;;3.70;1.40;;;;;;;13.31;63.04;101563.88;5092215;28;20113;-58
2023/04/07 02:03:50;;;;;;;5.50;1.80;;;;;;;13.16;63.81;101561.38;5081279;28;20051;-58
2023/04/07 02:06:21;;;;;;;5.10;1.48;;;;;;;13.34;62.74;101553.53;5087194;28;20027;-58
2023/04/07 02:08:53;;;;;;;3.97;1.50;;;;;;;13.03;63.02;101562.16;5077326;28;20396;-56
2023/04/07 02:11:21;;;;;;;2.72;1.35;;;;;;;13.09;64.57;101550.59;5069780;28;20021;-57
2023/04/07 02:13:51;;;;;;;9.55;1.77;;;;;;;12.98;64.46;101551.19;5077352;28;20118;-58
2023/04/07 02:16:19;;;;;;;7.07;1.50;;;;;;;12.77;64.97;101544.16;5089797;28;20040;-58
2023/04/07 02:18:47;;;;;;;5.47;1.23;;;;;;;12.80;65.70;101541.03;5071427;28;20043;-58
2023/04/07 02:21:15;;;;;;;6.22;1.73;;;;;;;12.94;65.04;101542.75;5083962;28;20024;-58
2023/04/07 02:23:41;;;;;;;6.70;1.58;;;;;;;12.65;65.78;101551.13;5071142;28;20112;-57
2023/04/07 02:26:07;;;;;;;7.38;1.60;;;;;;;12.50;67.08;101545.94;5091579;28;20054;-58
2023/04/07 02:28:34;;;;;;;8.70;1.88;;;;;;;12.39;67.98;101547.34;5087170;28;20024;-58
2023/04/07 02:31:00;;;;;;;6.38;1.52;;;;;;;12.64;67.40;101541.41;5072031;28;20036;-56
2023/04/07 02:33:26;;;;;;;4.95;1.45;;;;;;;12.85;66.68;101543.94;5068269;28;20416;-59
2023/04/07 02:35:53;;;;;;;6.07;1.13;;;;;;;12.61;66.78;101542.66;5070710;28;20029;-56
2023/04/07 02:38:19;;;;;;;8.60;1.40;;;;;;;12.72;67.08;101541.25;5091401;28;20032;-59
2023/04/07 02:40:45;;;;;;;6.30;1.67;;;;;;;12.71;67.06;101536.06;5082294;28;20038;-57
2023/04/07 02:43:11;;;;;;;3.45;1.63;;;;;;;12.74;67.70;101541.84;5092662;28;20020;-58
2023/04/07 02:45:38;;;;;;;6.00;1.65;;;;;;;12.60;68.40;101540.16;5091188;28;20016;-59
2023/04/07 02:48:04;;;;;;;5.25;1.77;;;;;;;12.73;69.10;101545.59;5091388;28;20028;-59
2023/04/07 02:50:30;;;;;;;3.72;1.67;;;;;;;12.68;69.35;101548.03;5090907;28;20024;-59
2023/04/07 02:52:57;;;;;;;5.88;1.58;;;;;;;12.48;70.27;101544.47;5081616;28;20029;-58
2023/04/07 02:55:23;;;;;;;7.18;1.67;;;;;;;12.47;71.12;101543.63;5084571;28;20032;-58
2023/04/07 02:57:49;;;;;;;8.63;1.92;;;;;;;12.32;71.51;101549.13;5090834;28;20095;-59
2023/04/07 03:00:16;;;;;;;3.03;1.65;;;;;;;12.31;71.91;101546.66;5091503;28;20067;-58
2023/04/07 03:02:42;;;;;;;4.60;1.60;;;;;;;12.46;71.87;101549.22;5095119;28;20023;-59
2023/04/07 03:05:08;;;;;;;4.32;2.13;;;;;;;12.46;72.24;101554.59;5094870;28;20036;-58
2023/04/07 03:07:35;;;;;;;4.68;1.70;;;;;;;12.31;73.36;101550.19;5094710;28;20023;-58
2023/04/07 03:10:01;;;;;;;9.10;1.63;;;;;;;12.56;72.34;101542.44;5094205;28;20545;-60
2023/04/07 03:12:27;;;;;;;5.68;2.10;;;;;;;12.56;72.32;101544.28;5090650;28;20107;-58
2023/04/07 03:14:53;;;;;;;6.75;1.85;;;;;;;12.52;71.81;101554.59;5094687;28;20127;-58
2023/04/07 03:17:20;;;;;;;6.07;1.80;;;;;;;12.46;70.71;101565.31;5094957;28;20438;-58
2023/04/07 03:19:46;;;;;;;4.35;1.60;;;;;;;12.47;70.53;101557.06;5094667;28;20427;-58
2023/04/07 03:22:12;;;;;;;7.30;1.52;;;;;;;12.47;70.19;101559.75;5094552;28;20055;-58
2023/04/07 03:24:40;;;;;;;3.53;1.73;;;;;;;12.34;71.47;101555.16;5094337;28;20472;-58
2023/04/07 03:27:06;;;;;;;4.10;1.90;;;;;;;12.47;71.32;101556.22;5094539;28;20074;-58
2023/04/07 03:29:33;;;;;;;6.45;1.80;;;;;;;12.57;70.80;101559.38;5095060;28;20032;-58
2023/04/07 03:31:59;;;;;;;7.78;2.10;;;;;;;12.55;70.94;101562.28;5094547;28;20512;-58
2023/04/07 03:34:25;;;;;;;6.85;1.65;;;;;;;12.31;71.88;101558.22;5106184;28;20028;-57
2023/04/07 03:36:51;;;;;;;3.55;1.38;;;;;;;12.34;71.62;101568.59;5095257;28;20030;-58
2023/04/07 03:39:18;;;;;;;6.25;1.55;;;;;;;12.41;71.39;101566.75;5093325;28;20028;-58
2023/04/07 03:41:44;;;;;;;4.97;1.70;;;;;;;12.49;71.79;101570.28;5101214;28;20027;-59
2023/04/07 03:44:11;;;;;;;7.97;2.15;;;;;;;12.41;72.09;101577.47;5099404;28;20012;-57
2023/04/07 03:46:37;;;;;;;4.60;1.60;;;;;;;12.41;71.79;101582.84;5091624;28;20032;-57
2023/04/07 03:49:03;;;;;;;4.63;1.63;;;;;;;12.45;70.97;101579.78;5093649;28;20171;-57
2023/04/07 03:51:29;;;;;;;5.20;1.48;;;;;;;12.35;71.07;101578.28;5079162;28;20016;-58
2023/04/07 03:53:55;;;;;;;6.47;2.33;;;;;;;12.46;70.67;101582.25;5091144;28;20024;-59
2023/04/07 03:56:23;;;;;;;3.70;1.63;;;;;;;12.38;70.50;101585.94;5093579;28;20114;-59
2023/04/07 03:58:49;;;;;;;5.18;1.60;;;;;;;12.25;70.71;101580.50;5083719;28;20039;-59
2023/04/07 04:01:16;;;;;;;4.28;1.55;;;;;;;12.38;69.66;101583.28;5093270;28;20065;-58
2023/04/07 04:03:42;;;;;;;8.40;1.80;;;;;;;12.34;70.51;101583.88;5092545;28;20032;-59
2023/04/07 04:06:08;;;;;;;4.18;1.70;;;;;;;12.45;69.70;101579.78;5091192;28;20030;-57
2023/04/07 04:08:34;;;;;;;3.05;1.50;;;;;;;12.50;69.79;101583.53;5093934;28;20431;-57
2023/04/07 04:11:01;;;;;;;4.63;1.55;;;;;;;12.55;69.37;101581.06;5093660;28;20071;-58
2023/04/07 04:13:27;;;;;;;7.57;1.85;;;;;;;12.40;69.48;101594.63;5093571;28;20040;-57
2023/04/07 04:15:53;;;;;;;4.38;1.38;;;;;;;12.52;69.10;101584.13;5093172;28;20073;-57
2023/04/07 04:18:19;;;;;;;3.53;1.50;;;;;;;12.48;69.33;101582.03;5093002;28;20396;-57
2023/04/07 04:20:46;;;;;;;6.47;1.60;;;;;;;12.49;69.82;101581.84;5093481;28;20024;-57
2023/04/07 04:23:13;;;;;;;10.73;1.50;;;;;;;12.50;69.77;101578.16;5093534;28;20074;-57
2023/04/07 04:25:39;;;;;;;2.95;1.33;;;;;;;12.58;69.21;101577.13;5107356;28;20054;-58
2023/04/07 04:28:06;;;;;;;4.88;1.42;;;;;;;12.52;69.54;101583.31;5113798;28;20469;-58
2023/04/07 04:30:32;;;;;;;5.10;1.38;;;;;;;12.67;69.37;101581.31;5097637;28;20502;-58
2023/04/07 04:32:58;;;;;;;4.80;1.63;;;;;;;12.64;70.13;101589.75;5093314;28;20052;-57
2023/04/07 04:35:25;;;;;;;7.13;1.73;;;;;;;12.58;70.44;101591.38;5092945;28;20024;-58
2023/04/07 04:37:51;;;;;;;4.32;1.40;;;;;;;12.63;70.02;101596.16;5091468;28;20389;-57
2023/04/07 04:40:17;;;;;;;5.80;1.98;;;;;;;12.51;70.54;101589.72;5092504;28;20016;-57
2023/04/07 04:42:44;;;;;;;4.80;1.40;;;;;;;12.42;71.38;101589.03;5093179;28;20376;-57
2023/04/07 04:45:10;;;;;;;6.45;2.10;;;;;;;12.48;71.79;101588.25;5093095;28;20032;-57
2023/04/07 04:47:37;;;;;;;6.38;1.38;;;;;;;12.56;72.27;101598.00;5092964;28;20024;-57
2023/04/07 04:50:05;;;;;;;6.28;1.65;;;;;;;12.27;74.11;101599.94;5078827;28;20423;-57
2023/04/07 04:52:33;;;;;;;8.25;1.60;;;;;;;12.16;74.20;101592.44;5094051;28;20447;-57
2023/04/07 04:54:59;;;;;;;2.95;1.38;;;;;;;12.37;72.99;101599.56;5104637;28;20036;-58
2023/04/07 04:57:25;;;;;;;4.53;1.50;;;;;;;12.32;73.40;101607.38;5112951;28;20031;-57
2023/04/07 04:59:51;;;;;;;5.28;1.55;;;;;;;12.37;72.70;101612.97;5098193;28;20042;-57
2023/04/07 05:02:18;;;;;;;6.20;2.42;;;;;;;12.35;72.08;101607.81;5092189;28;20055;-57
2023/04/07 05:04:44;;;;;;;4.40;1.88;;;;;;;12.43;71.66;101610.31;5090707;28;20028;-56
2023/04/07 05:07:10;;;;;;;6.15;2.60;;;;;;;12.28;72.84;101606.97;5092397;28;20055;-57
2023/04/07 05:09:36;;;;;;;4.75;1.73;;;;;;;12.33;72.01;101601.81;5091340;28;20406;-58
2023/04/07 05:12:03;;;;;;;6.40;1.92;;;;;;;12.26;72.04;101600.94;5092185;28;20408;-57
2023/04/07 05:14:29;;;;;;;5.18;1.80;;;;;;;12.33;71.92;101603.69;5090681;28;20047;-57
2023/04/07 05:16:55;;;;;;;5.45;1.83;;;;;;;12.47;71.33;101604.56;5112587;28;20019;-57
2023/04/07 05:19:22;;;;;;;8.20;1.98;;;;;;;12.16;72.77;101595.13;5108809;28;20106;-58
2023/04/07 05:21:48;;;;;;;3.38;1.73;;;;;;;12.30;72.29;101602.22;5112663;27;20098;-58
2023/04/07 05:24:14;;;;;;;3.90;1.65;;;;;;;12.22;72.81;101602.38;5093166;28;20016;-58
2023/04/07 05:26:40;;;;;;;5.80;1.98;;;;;;;12.23;72.82;101603.22;5078573;28;20029;-57
2023/04/07 05:29:07;;;;;;;7.65;2.10;;;;;;;12.27;72.57;101599.94;5071541;28;20033;-57
2023/04/07 05:31:36;;;;;;;5.55;1.40;;;;;;;12.21;72.56;101603.38;5084644;28;20017;-57
2023/04/07 05:34:02;;;;;;;8.05;1.70;;;;;;;12.24;72.63;101599.50;5078441;28;20031;-57
2023/04/07 05:36:28;;;;;;;3.75;1.73;;;;;;;12.20;72.50;101607.09;5086998;28;20373;-57
2023/04/07 05:38:55;;;;;;;6.30;1.90;;;;;;;12.22;72.71;101597.03;5087999;28;20043;-57
2023/04/07 05:41:21;;;;;;;5.78;1.55;;;;;;;12.12;72.86;101601.91;5092047;28;20077;-57
2023/04/07 05:43:47;;;;;;;7.07;1.80;;;;;;;12.09;73.20;101602.28;5089111;28;20074;-58
2023/04/07 05:46:13;;;;;;;5.50;2.13;;;;;;;12.18;73.02;101597.59;5075472;28;20028;-57
2023/04/07 05:48:40;;;;;;;7.78;1.63;;;;;;;12.21;72.38;101594.50;5072008;28;20446;-58
2023/04/07 05:51:06;;;;;;;5.40;1.60;;;;;;;12.25;72.87;101591.25;5091416;28;20081;-57
2023/04/07 05:53:32;;;;;;;4.65;1.63;;;;;;;12.37;72.42;101594.19;5077599;28;20052;-57
2023/04/07 05:55:59;;;;;;;4.40;1.58;;;;;;;12.23;73.16;101587.94;5071817;28;20473;-57
2023/04/07 05:58:25;;;;;;;6.10;1.52;;;;;;;12.14;73.56;101583.75;5087000;28;20036;-58
2023/04/07 06:00:51;;;;;;;7.65;2.00;;;;;;;12.07;74.17;101596.31;5091655;28;20028;-57
2023/04/07 06:03:17;;;;;;;4.65;2.03;;;;;;;12.00;74.69;101590.91;5091960;28;20024;-58
2023/04/07 06:05:46;;;;;;;6.50;1.98;;;;;;;11.97;75.33;101588.59;5092301;28;20028;-58
2023/04/07 06:08:12;;;;;;;8.70;2.30;;;;;;;11.98;75.06;101586.75;5092412;28;20031;-58
2023/04/07 06:10:40;;;;;;;5.25;1.65;;;;;;;11.86;75.65;101589.16;5092072;28;20098;-58
2023/04/07 06:13:07;;;;;;;6.40;1.65;;;;;;;11.84;75.64;101581.31;5091244;28;20063;-58
2023/04/07 06:15:34;;;;;;;7.72;1.80;;;;;;;11.96;74.87;101594.19;5091724;28;20027;-58
2023/04/07 06:18:00;;;;;;;6.85;1.88;;;;;;;11.93;75.08;101581.97;5090697;28;20035;-58
2023/04/07 06:20:26;;;;;;;2.70;1.60;;;;;;;11.97;75.20;101585.09;5070157;28;20119;-58
2023/04/07 06:22:54;;;;;;;2.75;1.40;;;;;;;12.01;74.77;101586.38;5072171;28;20038;-58
2023/04/07 06:25:20;;;;;;;5.72;1.35;;;;;;;12.03;74.70;101576.25;5098531;28;20073;-58
2023/04/07 06:27:46;;;;;;;5.05;1.92;;;;;;;11.94;75.08;101580.97;5092335;28;20039;-58
2023/04/07 06:30:13;;;;;;;7.88;1.52;;;;;;;11.87;75.61;101578.22;5093078;28;20267;-59
2023/04/07 06:32:39;;;;;;;4.57;2.05;;;;;;;11.96;75.44;101576.22;5080325;28;20050;-58
2023/04/07 06:35:06;;;;;;;4.78;1.73;;;;;;;11.88;75.88;101573.69;5090038;28;20098;-58
2023/04/07 06:37:32;;;;;;;6.00;1.70;;;;;;;11.85;75.90;101572.22;5095598;28;20028;-58
2023/04/07 06:39:58;;;;;;;3.85;1.38;;;;;;;12.02;74.95;101561.19;5081124;28;20108;-58
2023/04/07 06:42:25;;;;;;;7.13;1.98;;;;;;;12.02;74.92;101559.31;5075344;28;20024;-58
2023/04/07 06:44:51;;;;;;;3.03;1.33;;;;;;;11.94;74.82;101555.97;5073678;28;20021;-59
2023/04/07 06:47:17;;;;;;;4.45;1.52;;;;;;;12.13;73.98;101553.41;5075308;28;20538;-58
2023/04/07 06:49:43;;;;;;;3.17;1.50;;;;;;;12.16;73.26;101562.94;5078890;28;20040;-58
2023/04/07 06:52:10;;;;;;;8.23;1.90;;;;;;;12.03;73.76;101552.94;5075323;28;20032;-58
2023/04/07 06:54:36;;;;;;;4.43;1.60;;;;;;;12.02;74.38;101556.66;5077494;28;20032;-57
2023/04/07 06:57:02;;;;;;;4.88;1.50;;;;;;;12.13;73.65;101555.25;5075011;28;20025;-57
2023/04/07 06:59:29;;;;;;;5.35;1.52;;;;;;;12.12;73.79;101549.06;5086577;28;20034;-57
2023/04/07 07:01:55;;;;;;;7.30;1.73;;;;;;;12.19;73.11;101551.78;5100597;28;20093;-57
2023/04/07 07:04:21;;;;;;;3.13;1.42;;;;;;;12.07;73.42;101556.06;5092680;28;20031;-58
2023/04/07 07:06:47;;;;;;;4.05;1.75;;;;;;;12.26;72.36;101566.06;5077634;28;20097;-58
2023/04/07 07:09:14;;;;;;;3.33;1.67;;;;;;;12.07;73.27;101558.75;5103772;28;20031;-58
2023/04/07 07:11:41;;;;;;;5.75;1.58;;;;;;;12.05;72.81;101558.13;5115494;28;20364;-58
2023/04/07 07:14:07;;;;;;;8.50;1.30;;;;;;;12.13;71.79;101566.81;5087207;28;20044;-58
2023/04/07 07:16:33;;;;;;;6.65;1.83;;;;;;;12.07;72.91;101551.50;5074381;28;20029;-58
2023/04/07 07:18:59;;;;;;;3.75;1.25;;;;;;;11.95;73.32;101539.69;5075780;28;20024;-58
2023/04/07 07:21:26;;;;;;;3.58;1.35;;;;;;;12.02;73.44;101548.59;5074497;28;20028;-58
2023/04/07 07:23:52;;;;;;;5.55;1.50;;;;;;;12.08;73.60;101544.28;5086397;28;20039;-58
2023/04/07 07:26:19;;;;;;;6.07;2.08;;;;;;;11.92;73.99;101547.28;5094581;28;20024;-58
2023/04/07 07:28:46;;;;;;;4.65;1.52;;;;;;;11.99;74.06;101543.59;5092894;28;20032;-58
2023/04/07 07:31:14;;;;;;;2.92;1.42;;;;;;;11.83;74.27;101542.09;5094595;28;20018;-58
2023/04/07 07:33:42;;;;;;;4.95;1.75;;;;;;;12.01;73.54;101543.44;5090579;28;20024;-58
2023/04/07 07:36:09;;;;;;;4.07;1.45;;;;;;;11.99;73.35;101534.75;5093260;28;20031;-58
2023/04/07 07:38:35;;;;;;;4.60;1.50;;;;;;;11.89;73.81;101535.94;5097003;28;20077;-57
2023/04/07 07:41:02;;;;;;;4.65;1.55;;;;;;;11.92;73.39;101553.47;5112464;28;20434;-58
2023/04/07 07:43:28;;;;;;;5.50;1.60;;;;;;;12.03;72.45;101560.16;5111467;28;20472;-58
2023/04/07 07:45:55;;;;;;;4.00;1.45;;;;;;;11.98;73.17;101557.22;5092703;28;20039;-57
2023/04/07 07:48:21;;;;;;;4.03;1.55;;;;;;;11.85;74.27;101548.09;5093097;28;20055;-57
2023/04/07 07:50:48;;;;;;;4.50;1.30;;;;;;;12.02;73.59;101542.41;5094176;28;20456;-57
2023/04/07 07:53:14;;;;;;;4.80;1.45;;;;;;;11.99;73.11;101542.78;5092971;28;20543;-58
2023/04/07 07:55:40;;;;;;;4.03;1.23;;;;;;;12.03;72.46;101549.41;5087637;28;20460;-57
2023/04/07 07:58:07;;;;;;;3.55;1.30;;;;;;;12.00;72.77;101549.84;5102771;28;20127;-57
2023/04/07 08:00:33;;;;;;;2.60;1.00;;;;;;;12.11;72.38;101552.78;5114509;28;20027;-57
2023/04/07 08:02:59;;;;;;;4.40;1.52;;;;;;;12.19;72.35;101554.47;5111829;28;20129;-57
2023/04/07 08:05:25;;;;;;;1.60;1.02;;;;;;;12.20;71.98;101558.78;5112285;28;20028;-56
2023/04/07 08:07:54;;;;;;;5.50;1.45;;;;;;;12.22;73.11;101556.75;5091506;28;20103;-57
2023/04/07 08:10:22;;;;;;;3.70;1.20;;;;;;;12.07;73.61;101548.00;5077953;28;20043;-57
2023/04/07 08:12:48;;;;;;;6.55;1.70;;;;;;;12.15;73.56;101542.47;5083898;28;20042;-56
2023/04/07 08:15:14;;;;;;;7.15;1.52;;;;;;;12.16;73.64;101544.16;5113898;27;20475;-57
2023/04/07 08:17:40;;;;;;;2.65;1.38;;;;;;;12.17;73.44;101539.59;5094880;28;20030;-56
2023/04/07 08:20:07;;;;;;;2.45;1.52;;;;;;;12.19;72.82;101538.34;5089536;28;20039;-57
2023/04/07 08:22:34;;;;;;;5.95;1.20;;;;;;;12.18;73.13;101525.97;5092142;28;20036;-57
2023/04/07 08:25:00;;;;;;;3.65;1.33;;;;;;;12.00;73.39;101523.81;5072727;28;20029;-57
2023/04/07 08:27:26;;;;;;;4.65;1.60;;;;;;;12.06;73.04;101516.84;5082805;28;20031;-57
2023/04/07 08:30:01;;;;;;;2.70;1.13;;;;;;;12.03;73.27;101518.03;5072544;28;20111;-57
2023/04/07 08:32:41;;;;;;;3.38;1.05;;;;;;;12.06;72.93;101517.66;5072818;28;20021;-56
2023/04/07 08:35:08;;;;;;;2.85;1.10;;;;;;;12.12;72.70;101508.81;5086835;28;20043;-57
2023/04/07 08:37:35;;;;;;;3.70;1.30;;;;;;;11.97;72.63;101502.75;5104418;28;20056;-57
2023/04/07 08:40:02;;;;;;;4.57;1.48;;;;;;;12.00;72.10;101506.91;5113453;28;20035;-57
2023/04/07 08:42:31;;;;;;;2.38;1.30;;;;;;;12.00;72.22;101506.91;5090196;28;20048;-57
2023/04/07 08:45:01;;;;;;;4.60;1.40;;;;;;;12.06;72.83;101500.75;5072897;28;20028;-56
2023/04/07 08:47:31;;;;;;;6.45;1.52;;;;;;;12.03;74.04;101493.91;5077883;28;20032;-56
2023/04/07 08:50:02;;;;;;;8.50;1.60;;;;;;;12.03;74.69;101498.44;5073010;28;20062;-57
2023/04/07 08:52:54;;;;;;;7.25;1.55;;;;;;;11.91;75.82;101500.03;5081270;28;20041;-57
2023/04/07 08:55:20;;;;;;;5.80;1.70;;;;;;;11.83;77.24;101507.22;5092562;28;20039;-57
2023/04/07 08:57:47;;;;;;;5.03;1.65;;;;;;;11.73;78.02;101500.53;5103832;28;20089;-57
2023/04/07 09:00:14;;;;;;;4.55;1.42;;;;;;;11.80;78.07;101502.22;5077845;28;20028;-57
2023/04/07 09:02:44;;;;;;;4.10;1.52;;;;;;;11.68;79.13;101501.13;5097884;28;20055;-57
2023/04/07 09:05:13;;;;;;;3.55;1.38;;;;;;;11.74;79.22;101513.75;5111930;28;20479;-57
2023/04/07 09:07:39;;;;;;;5.28;1.80;;;;;;;11.74;79.41;101502.19;5088281;28;20036;-57
2023/04/07 09:10:06;;;;;;;5.38;1.48;;;;;;;11.66;79.81;101505.00;5082273;28;20077;-57
2023/04/07 09:12:33;;;;;;;6.75;1.50;;;;;;;11.56;80.75;101505.38;5089353;28;20134;-57
2023/04/07 09:15:00;;;;;;;5.13;1.35;;;;;;;11.47;81.47;101511.91;5092653;28;20093;-57
2023/04/07 09:17:27;;;;;;;3.83;1.70;;;;;;;11.38;81.91;101511.22;5101198;28;20388;-57
2023/04/07 09:19:58;;;;;;;6.30;1.60;;;;;;;11.46;82.06;101499.53;5113201;28;20116;-57
2023/04/07 09:22:42;;;;;;;5.47;1.67;;;;;;;11.34;83.35;101510.78;5102703;28;20563;-56
2023/04/07 09:25:22;;;;;;;3.55;1.63;;;;;;;11.34;83.21;101502.75;5092284;28;20024;-57
2023/04/07 09:28:00;;;;;;;5.93;1.90;;;;;;;11.13;84.91;101501.97;5091136;28;20039;-56
2023/04/07 09:30:28;;;;;;;7.10;2.47;;;;;;;11.26;85.22;101499.38;5092601;28;20566;-56
2023/04/07 09:32:55;;;;;;;5.90;1.85;;;;;;;11.35;84.75;101490.16;5086908;28;20035;-56
2023/04/07 09:35:23;;;;;;;4.57;1.65;;;;;;;11.16;85.95;101493.50;5082737;28;20043;-56
2023/04/07 09:38:06;;;;;;;5.00;1.67;;;;;;;11.29;85.09;101488.28;5080999;28;20020;-56
2023/04/07 09:40:33;;;;;;;6.93;1.70;;;;;;;11.40;84.17;101486.91;5092381;28;20024;-56
2023/04/07 09:43:01;;;;;;;5.43;1.83;;;;;;;11.22;85.51;101480.19;5095283;28;20379;-56
2023/04/07 09:45:28;;;;;;;4.07;1.70;;;;;;;11.27;85.49;101477.75;5092020;28;20028;-56
2023/04/07 09:47:54;;;;;;;5.60;1.98;;;;;;;11.22;85.29;101472.16;5090848;28;20032;-56
2023/04/07 09:50:40;;;;;;;5.72;1.75;;;;;;;11.27;85.85;101488.47;5081821;28;20024;-56
2023/04/07 09:53:07;;;;;;;6.07;2.00;;;;;;;11.29;85.07;101483.75;5074011;28;20552;-56
2023/04/07 09:55:35;;;;;;;4.55;2.10;;;;;;;11.20;85.22;101490.25;5071568;28;20535;-56
2023/04/07 09:58:03;;;;;;;7.55;1.83;;;;;;;11.31;84.97;101489.72;5074021;28;20507;-57
2023/04/07 10:00:29;;;;;;;5.70;1.50;;;;;;;11.46;83.83;101492.31;5071885;28;20031;-56
2023/04/07 10:02:56;;;;;;;5.22;1.83;;;;;;;11.39;84.74;101488.78;5073592;28;20021;-56
2023/04/07 10:05:24;;;;;;;4.63;1.70;;;;;;;11.18;85.40;101492.31;5071154;28;20029;-56
2023/04/07 10:07:51;;;;;;;6.40;1.77;;;;;;;11.34;85.28;101481.31;5074959;28;20024;-57
2023/04/07 10:10:17;;;;;;;4.85;1.77;;;;;;;11.35;85.42;101480.28;5076187;28;20020;-56
2023/04/07 10:12:44;;;;;;;3.83;1.90;;;;;;;11.22;85.61;101472.16;5089038;28;20042;-55
2023/04/07 10:15:16;;;;;;;3.65;1.52;;;;;;;11.20;85.75;101474.19;5070359;28;20032;-56
2023/04/07 10:17:50;;;;;;;6.63;1.77;;;;;;;11.24;85.48;101466.59;5075072;28;20024;-56
2023/04/07 10:20:19;;;;;;;7.47;1.90;;;;;;;11.34;85.09;101462.53;5089140;28;20039;-56
2023/04/07 10:22:50;;;;;;;4.60;1.60;;;;;;;11.27;85.43;101469.72;5091714;28;20040;-57
2023/04/07 10:25:18;;;;;;;6.00;1.58;;;;;;;11.15;86.55;101465.91;5087183;28;20028;-56
2023/04/07 10:27:52;;;;;;;8.40;2.08;;;;;;;11.18;86.40;101460.16;5089416;28;20393;-56
2023/04/07 10:30:28;;;;;;;4.95;1.65;;;;;;;11.04;86.28;101466.44;5071536;28;20036;-56
2023/04/07 10:32:54;;;;;;;5.65;1.60;;;;;;;11.14;86.21;101474.97;5071408;28;20112;-56
2023/04/07 10:35:21;;;;;;;4.20;1.88;;;;;;;11.13;86.00;101470.63;5070848;28;20488;-56
2023/04/07 10:38:12;;;;;;;4.47;1.45;;;;;;;11.25;86.32;101462.88;5072858;28;20107;-56
2023/04/07 10:40:39;;;;;;;4.80;1.48;;;;;;;11.15;86.73;101473.94;5076131;28;20039;-56
2023/04/07 10:43:13;;;;;;;7.45;1.73;;;;;;;10.93;87.98;101472.31;5071585;28;20295;-56
2023/04/07 10:45:48;;;;;;;8.90;2.00;;;;;;;10.81;89.15;101459.44;5085961;28;20034;-56
2023/04/07 10:48:18;;;;;;;4.57;1.90;;;;;;;11.03;88.24;101456.75;5091343;28;20356;-56
2023/04/07 10:51:03;;;;;;;6.85;1.80;;;;;;;10.90;89.06;101456.63;5074897;28;20040;-56
2023/04/07 10:53:30;;;;;;;2.08;1.33;;;;;;;10.95;89.17;101441.66;5071299;28;20029;-56
2023/04/07 10:55:58;;;;;;;6.07;1.92;;;;;;;10.97;88.87;101439.59;5086682;28;20082;-56
2023/04/07 10:58:28;;;;;;;6.10;1.70;;;;;;;10.94;89.45;101436.47;5091241;28;20031;-56
2023/04/07 11:01:00;;;;;;;5.90;2.05;;;;;;;11.00;89.29;101439.22;5085254;28;20399;-56
2023/04/07 11:03:28;;;;;;;6.40;1.60;;;;;;;10.99;89.50;101431.34;5085225;28;20020;-56
2023/04/07 11:06:08;;;;;;;4.10;1.58;;;;;;;10.94;90.37;101442.66;5079446;28;20439;-56
2023/04/07 11:08:36;;;;;;;4.35;2.00;;;;;;;10.91;90.32;101436.88;5071045;28;20124;-56
2023/04/07 11:11:07;;;;;;;5.25;1.98;;;;;;;11.02;90.07;101439.84;5079894;28;20024;-56
2023/04/07 11:13:45;;;;;;;7.97;2.08;;;;;;;11.00;89.86;101439.22;5071071;28;20408;-56
2023/04/07 11:16:11;;;;;;;4.40;2.38;;;;;;;11.01;90.81;101445.41;5087058;28;20032;-56
2023/04/07 11:18:38;;;;;;;3.97;2.10;;;;;;;11.07;90.27;101434.72;5094913;28;20024;-56
2023/04/07 11:21:06;;;;;;;4.15;1.90;;;;;;;11.10;89.91;101430.81;5106804;28;20032;-56
2023/04/07 11:23:46;;;;;;;7.30;2.17;;;;;;;11.15;89.58;101436.41;5115153;28;20051;-56
2023/04/07 11:26:14;;;;;;;3.95;1.45;;;;;;;11.21;89.33;101432.97;5088942;28;20474;-56
2023/04/07 11:28:54;;;;;;;6.18;2.15;;;;;;;11.20;90.39;101441.19;5074126;28;20453;-56